Time;durP1;ratioP1;P1;durP2;ratioP2;P2;SDS_P1;SDS_P2;PMS_P1;PMS_P2;Temp;Humidity;BMP_temperature;BMP_pressure;BME280_temperature;BME280_humidity;BME280_pressure;Samples;Min_cycle;Max_cycle;Signal;HPM_P1;HPM_P2
2023/10/24 00:00:25;;;;;;;;;;;;;;;20.24;62.69;98623.69;2079749;28;20007;-68
2023/10/24 00:01:28;;;;;;;;;;;;;;;20.25;62.84;98633.44;2078851;28;20007;-68
2023/10/24 00:02:30;;;;;;;;;;;;;;;20.23;62.94;98630.13;2074924;28;19932;-68
2023/10/24 00:03:30;;;;;;;;;;;;;;;20.24;63.07;98629.09;2081664;28;19921;-68
2023/10/24 00:04:32;;;;;;;;;;;;;;;20.25;62.82;98630.75;2079709;28;20011;-68
2023/10/24 00:05:32;;;;;;;;;;;;;;;20.26;63.04;98631.56;2079271;28;19920;-68
2023/10/24 00:06:33;;;;;;;;;;;;;;;20.24;62.91;98628.25;2078796;28;20048;-68
2023/10/24 00:07:34;;;;;;;;;;;;;;;20.24;63.02;98626.38;2077063;28;19921;-68
2023/10/24 00:08:35;;;;;;;;;;;;;;;20.26;62.88;98631.56;2078660;28;19928;-68
2023/10/24 00:09:37;;;;;;;;;;;;;;;20.24;62.80;98623.69;2077945;28;20561;-68
2023/10/24 00:10:37;;;;;;;;;;;;;;;20.25;63.03;98625.38;2078241;28;19920;-67
2023/10/24 00:11:38;;;;;;;;;;;;;;;20.24;62.76;98623.69;2076580;28;20391;-68
2023/10/24 00:12:40;;;;;;;;;;;;;;;20.25;62.68;98632.59;2063303;28;20007;-66
2023/10/24 00:13:40;;;;;;;;;;;;;;;20.25;62.85;98628.06;2076324;28;19943;-66
2023/10/24 00:14:42;;;;;;;;;;;;;;;20.25;62.75;98632.59;2074167;28;20019;-66
2023/10/24 00:15:42;;;;;;;;;;;;;;;20.26;62.87;98634.25;2075334;28;19921;-66
2023/10/24 00:16:45;;;;;;;;;;;;;;;20.24;63.01;98631.78;2080917;28;20015;-67
2023/10/24 00:17:46;;;;;;;;;;;;;;;20.25;63.04;98633.44;2082265;28;19936;-65
2023/10/24 00:18:47;;;;;;;;;;;;;;;20.24;62.85;98630.94;2078854;28;20003;-66
2023/10/24 00:19:49;;;;;;;;;;;;;;;20.24;62.75;98629.09;2081546;28;19921;-66
2023/10/24 00:20:49;;;;;;;;;;;;;;;20.24;62.94;98626.38;2081145;28;19921;-66
2023/10/24 00:21:50;;;;;;;;;;;;;;;20.25;62.69;98628.06;2081962;28;20457;-66
2023/10/24 00:22:51;;;;;;;;;;;;;;;20.25;62.94;98627.22;2080394;28;20423;-66
2023/10/24 00:23:52;;;;;;;;;;;;;;;20.25;62.83;98630.75;2079293;28;20402;-66
2023/10/24 00:24:52;;;;;;;;;;;;;;;20.26;62.74;98639.66;2082062;28;19929;-65
2023/10/24 00:25:54;;;;;;;;;;;;;;;20.25;62.80;98638.84;2078012;28;19935;-66
2023/10/24 00:26:55;;;;;;;;;;;;;;;20.23;62.65;98638.22;2077039;28;20396;-66
2023/10/24 00:27:57;;;;;;;;;;;;;;;20.25;62.75;98637.97;2080580;28;19920;-66
2023/10/24 00:28:57;;;;;;;;;;;;;;;20.25;62.90;98638.84;2082744;28;19931;-66
2023/10/24 00:29:59;;;;;;;;;;;;;;;20.26;62.74;98634.25;2079029;28;19931;-66
2023/10/24 00:31:00;;;;;;;;;;;;;;;20.25;62.74;98635.28;2080175;28;19925;-66
2023/10/24 00:32:04;;;;;;;;;;;;;;;20.24;62.91;98633.66;2067908;28;19924;-66
2023/10/24 00:33:04;;;;;;;;;;;;;;;20.26;62.95;98645.88;2078139;28;19925;-66
2023/10/24 00:34:08;;;;;;;;;;;;;;;20.26;62.86;98629.69;2079194;28;20466;-65
2023/10/24 00:35:09;;;;;;;;;;;;;;;20.24;62.69;98636.34;2084896;28;19928;-65
2023/10/24 00:36:11;;;;;;;;;;;;;;;20.26;62.62;98642.34;2078392;28;20388;-66
2023/10/24 00:37:11;;;;;;;;;;;;;;;20.25;62.92;98635.28;2079230;28;19920;-66
2023/10/24 00:38:13;;;;;;;;;;;;;;;20.25;62.91;98630.75;2077930;28;19925;-65
2023/10/24 00:39:13;;;;;;;;;;;;;;;20.24;62.76;98623.69;2078669;28;20307;-66
2023/10/24 00:40:15;;;;;;;;;;;;;;;20.25;62.95;98633.44;2078092;28;20011;-66
2023/10/24 00:41:16;;;;;;;;;;;;;;;20.24;63.05;98631.78;2078151;28;19921;-65
2023/10/24 00:42:17;;;;;;;;;;;;;;;20.24;62.94;98637.16;2079506;28;19925;-66
2023/10/24 00:43:18;;;;;;;;;;;;;;;20.26;62.84;98634.25;2082692;28;20295;-66
2023/10/24 00:44:19;;;;;;;;;;;;;;;20.25;62.59;98638.84;2080196;28;19921;-66
2023/10/24 00:45:20;;;;;;;;;;;;;;;20.26;62.67;98635.09;2078653;28;19928;-66
2023/10/24 00:46:22;;;;;;;;;;;;;;;20.25;62.87;98630.75;2079962;28;19972;-65
2023/10/24 00:47:24;;;;;;;;;;;;;;;20.26;62.94;98634.25;2078530;28;19921;-65
2023/10/24 00:48:28;;;;;;;;;;;;;;;20.25;62.68;98638.84;2066208;28;19956;-65
2023/10/24 00:49:29;;;;;;;;;;;;;;;20.24;62.68;98628.25;2078143;28;19931;-66
2023/10/24 00:50:31;;;;;;;;;;;;;;;20.24;62.98;98623.69;2077970;28;19982;-65
2023/10/24 00:51:32;;;;;;;;;;;;;;;20.25;63.03;98625.38;2077453;28;19928;-66
2023/10/24 00:52:34;;;;;;;;;;;;;;;20.25;62.69;98628.06;2082385;28;19994;-66
2023/10/24 00:53:50;;;;;;;;;;;;;;;20.26;62.88;98627.00;2063987;28;19964;-66
2023/10/24 00:54:51;;;;;;;;;;;;;;;20.26;62.58;98628.88;2079278;28;20359;-66
2023/10/24 00:55:52;;;;;;;;;;;;;;;20.26;62.71;98624.31;2078743;28;19932;-66
2023/10/24 00:56:55;;;;;;;;;;;;;;;20.25;62.87;98622.69;2078435;28;19924;-66
2023/10/24 00:57:56;;;;;;;;;;;;;;;20.25;62.78;98621.81;2082333;28;20391;-66
2023/10/24 00:58:58;;;;;;;;;;;;;;;20.25;62.85;98624.50;2080868;28;19924;-66
2023/10/24 00:59:59;;;;;;;;;;;;;;;20.25;62.68;98622.69;2077958;28;19920;-67
2023/10/24 01:01:01;;;;;;;;;;;;;;;20.25;62.92;98616.44;2076496;28;19924;-66
2023/10/24 01:02:02;;;;;;;;;;;;;;;20.25;62.91;98614.59;2076815;28;19932;-66
2023/10/24 01:03:05;;;;;;;;;;;;;;;20.24;62.72;98609.41;2079147;28;19943;-66
2023/10/24 01:04:06;;;;;;;;;;;;;;;20.25;62.71;98606.50;2081508;28;19929;-66
2023/10/24 01:05:07;;;;;;;;;;;;;;;20.26;63.00;98616.22;2082405;28;20406;-66
2023/10/24 01:06:09;;;;;;;;;;;;;;;20.25;62.60;98611.06;2075139;28;19929;-66
2023/10/24 01:07:10;;;;;;;;;;;;;;;20.25;62.78;98611.06;2070681;28;19948;-65
2023/10/24 01:08:11;;;;;;;;;;;;;;;20.25;62.99;98616.44;2076655;28;20064;-66
2023/10/24 01:09:12;;;;;;;;;;;;;;;20.26;62.59;98616.22;2080750;28;19935;-66
2023/10/24 01:10:14;;;;;;;;;;;;;;;20.26;62.67;98610.03;2080016;28;19921;-66
2023/10/24 01:11:14;;;;;;;;;;;;;;;20.25;62.62;98605.66;2079106;28;19936;-65
2023/10/24 01:12:16;;;;;;;;;;;;;;;20.24;62.51;98599.47;2078243;28;20371;-66
2023/10/24 01:13:16;;;;;;;;;;;;;;;20.26;62.69;98607.34;2080443;28;19927;-66
2023/10/24 01:14:18;;;;;;;;;;;;;;;20.24;62.86;98596.75;2079838;28;20383;-66
2023/10/24 01:15:19;;;;;;;;;;;;;;;20.23;62.86;98605.91;2067833;28;19921;-65
2023/10/24 01:16:20;;;;;;;;;;;;;;;20.24;62.86;98604.84;2078233;28;20307;-66
2023/10/24 01:17:21;;;;;;;;;;;;;;;20.24;62.93;98595.94;2079373;28;19936;-66
2023/10/24 01:18:24;;;;;;;;;;;;;;;20.24;62.88;98594.06;2082694;28;20336;-66
2023/10/24 01:19:25;;;;;;;;;;;;;;;20.24;62.72;98595.94;2082761;28;20395;-65
2023/10/24 01:20:27;;;;;;;;;;;;;;;20.24;62.72;98593.25;2084004;28;20012;-66
2023/10/24 01:21:28;;;;;;;;;;;;;;;20.23;62.64;98584.34;2082495;28;20307;-66
2023/10/24 01:22:31;;;;;;;;;;;;;;;20.25;62.63;98586.81;2081782;28;20051;-66
2023/10/24 01:23:32;;;;;;;;;;;;;;;20.25;62.80;98581.44;2083617;28;19924;-66
2023/10/24 01:24:32;;;;;;;;;;;;;;;20.24;63.03;98588.69;2081053;28;19920;-65
2023/10/24 01:25:36;;;;;;;;;;;;;;;20.23;62.82;98575.44;2079621;28;20372;-65
2023/10/24 01:26:37;;;;;;;;;;;;;;;20.24;62.95;98577.09;2077958;28;20003;-66
2023/10/24 01:27:39;;;;;;;;;;;;;;;20.23;62.79;98573.56;2079012;28;20004;-66
2023/10/24 01:28:40;;;;;;;;;;;;;;;20.24;62.67;98566.31;2078113;28;19952;-66
2023/10/24 01:29:41;;;;;;;;;;;;;;;20.24;62.84;98561.75;2078044;28;19921;-65
2023/10/24 01:30:42;;;;;;;;;;;;;;;20.24;62.54;98561.75;2077838;28;19924;-66
2023/10/24 01:31:43;;;;;;;;;;;;;;;20.25;62.74;98555.34;2076590;28;19994;-66
2023/10/24 01:32:44;;;;;;;;;;;;;;;20.26;62.63;98554.28;2078111;28;20437;-65
2023/10/24 01:33:46;;;;;;;;;;;;;;;20.25;62.58;98554.50;2071360;28;19998;-65
2023/10/24 01:34:46;;;;;;;;;;;;;;;20.25;62.96;98555.34;2079040;28;19928;-66
2023/10/24 01:35:48;;;;;;;;;;;;;;;20.24;62.91;98552.84;2079707;28;20012;-66
2023/10/24 01:36:49;;;;;;;;;;;;;;;20.24;62.93;98548.28;2076663;28;19932;-66
2023/10/24 01:37:52;;;;;;;;;;;;;;;20.25;62.95;98554.50;2076707;28;19959;-66
2023/10/24 01:38:53;;;;;;;;;;;;;;;20.25;62.70;98547.25;2079687;28;19921;-66
2023/10/24 01:39:54;;;;;;;;;;;;;;;20.25;62.80;98552.66;2077460;28;20043;-66
2023/10/24 01:40:55;;;;;;;;;;;;;;;20.25;62.71;98539.19;2078956;28;19928;-65
2023/10/24 01:41:57;;;;;;;;;;;;;;;20.26;62.94;98530.06;2078208;28;19925;-66
2023/10/24 01:42:57;;;;;;;;;;;;;;;20.26;62.69;98540.00;2081436;28;19975;-67
2023/10/24 01:43:59;;;;;;;;;;;;;;;20.25;62.92;98536.50;2079613;28;20018;-66
2023/10/24 01:44:59;;;;;;;;;;;;;;;20.26;62.88;98534.63;2078467;28;19936;-66
2023/10/24 01:46:00;;;;;;;;;;;;;;;20.27;62.89;98541.66;2079879;28;19927;-66
2023/10/24 01:47:01;;;;;;;;;;;;;;;20.27;62.78;98533.56;2078835;28;19982;-67
2023/10/24 01:48:02;;;;;;;;;;;;;;;20.26;62.59;98543.53;2078791;28;20011;-66
2023/10/24 01:49:04;;;;;;;;;;;;;;;20.29;62.93;98547.66;2078928;28;20532;-66
2023/10/24 01:50:05;;;;;;;;;;;;;;;20.26;62.68;98545.38;2081951;28;19921;-66
2023/10/24 01:51:07;;;;;;;;;;;;;;;20.25;62.75;98541.88;2069188;28;19986;-65
2023/10/24 01:52:07;;;;;;;;;;;;;;;20.26;62.86;98540.00;2075328;28;19931;-65
2023/10/24 01:53:10;;;;;;;;;;;;;;;20.25;62.69;98535.63;2078587;28;19967;-66
2023/10/24 01:54:11;;;;;;;;;;;;;;;20.25;63.01;98533.81;2076631;28;19928;-66
2023/10/24 01:55:12;;;;;;;;;;;;;;;20.27;62.91;98534.38;2078104;28;19931;-66
2023/10/24 01:56:13;;;;;;;;;;;;;;;20.26;62.88;98526.53;2081373;28;19925;-66
2023/10/24 01:57:15;;;;;;;;;;;;;;;20.26;62.93;98527.34;2078825;28;19925;-66
2023/10/24 01:58:15;;;;;;;;;;;;;;;20.26;62.66;98515.75;2075719;28;19925;-66
2023/10/24 01:59:17;;;;;;;;;;;;;;;20.25;62.79;98516.78;2080268;28;25195;-66
2023/10/24 02:00:18;;;;;;;;;;;;;;;20.24;62.83;98518.66;2076860;28;20877;-66
2023/10/24 02:01:20;;;;;;;;;;;;;;;20.25;62.91;98516.78;2078593;28;20353;-66
2023/10/24 02:02:20;;;;;;;;;;;;;;;20.25;63.06;98522.19;2075871;28;19936;-66
2023/10/24 02:03:22;;;;;;;;;;;;;;;20.25;62.79;98523.03;2079176;28;24910;-67
2023/10/24 02:04:22;;;;;;;;;;;;;;;20.25;62.72;98519.47;2080006;28;19928;-66
2023/10/24 02:05:24;;;;;;;;;;;;;;;20.25;62.62;98514.94;2076101;28;20012;-66
2023/10/24 02:06:25;;;;;;;;;;;;;;;20.27;62.81;98517.41;2079552;28;20299;-66
2023/10/24 02:07:28;;;;;;;;;;;;;;;20.26;62.86;98516.59;2077058;28;19935;-65
2023/10/24 02:08:30;;;;;;;;;;;;;;;20.27;63.00;98517.41;2078475;28;20379;-66
2023/10/24 02:09:31;;;;;;;;;;;;;;;20.27;62.74;98512.03;2063899;28;21385;-66
2023/10/24 02:10:32;;;;;;;;;;;;;;;20.27;62.98;98510.16;2079644;28;20292;-66
2023/10/24 02:11:34;;;;;;;;;;;;;;;20.26;62.76;98513.88;2077156;28;19927;-66
2023/10/24 02:12:35;;;;;;;;;;;;;;;20.27;62.95;98512.03;2079615;28;19921;-67
2023/10/24 02:13:36;;;;;;;;;;;;;;;20.26;62.79;98510.38;2079740;28;21732;-66
2023/10/24 02:14:37;;;;;;;;;;;;;;;20.26;62.85;98503.13;2076331;28;19932;-65
2023/10/24 02:15:39;;;;;;;;;;;;;;;20.27;62.75;98503.94;2079526;28;20290;-66
2023/10/24 02:16:39;;;;;;;;;;;;;;;20.25;62.77;98493.41;2064079;28;19929;-67
2023/10/24 02:17:42;;;;;;;;;;;;;;;20.25;63.01;98485.31;2077678;28;19920;-66
2023/10/24 02:18:42;;;;;;;;;;;;;;;20.27;62.77;98485.91;2075649;28;20012;-66
2023/10/24 02:19:44;;;;;;;;;;;;;;;20.27;62.69;98485.91;2080539;28;20156;-67
2023/10/24 02:20:44;;;;;;;;;;;;;;;20.26;63.03;98470.81;2077017;28;19925;-65
2023/10/24 02:21:45;;;;;;;;;;;;;;;20.25;63.07;98466.47;2080439;28;19925;-65
2023/10/24 02:22:48;;;;;;;;;;;;;;;20.26;62.70;98464.59;2076671;28;20563;-66
2023/10/24 02:23:51;;;;;;;;;;;;;;;20.25;62.87;98461.09;2077755;28;20923;-66
2023/10/24 02:24:51;;;;;;;;;;;;;;;20.26;63.00;98454.66;2077350;28;20295;-65
2023/10/24 02:25:53;;;;;;;;;;;;;;;20.26;62.80;98451.13;2079475;28;19921;-65
2023/10/24 02:26:53;;;;;;;;;;;;;;;20.26;62.70;98446.56;2075633;28;19928;-66
2023/10/24 02:27:56;;;;;;;;;;;;;;;20.25;62.83;98439.53;2079646;28;20637;-65
2023/10/24 02:28:57;;;;;;;;;;;;;;;20.25;63.19;98438.69;2076025;28;19932;-66
2023/10/24 02:29:58;;;;;;;;;;;;;;;20.26;62.91;98434.97;2075906;28;20436;-65
2023/10/24 02:31:01;;;;;;;;;;;;;;;20.25;63.08;98433.31;2075950;28;19928;-65
2023/10/24 02:32:02;;;;;;;;;;;;;;;20.25;63.18;98434.16;2078640;28;19929;-64
2023/10/24 02:33:03;;;;;;;;;;;;;;;20.25;63.08;98431.47;2080582;28;20024;-66
2023/10/24 02:34:05;;;;;;;;;;;;;;;20.25;63.04;98436.84;2074503;28;19935;-65
2023/10/24 02:35:05;;;;;;;;;;;;;;;20.24;63.10;98428.97;2070715;28;19935;-65
2023/10/24 02:36:07;;;;;;;;;;;;;;;20.25;62.88;98428.78;2078131;28;20016;-66
2023/10/24 02:37:08;;;;;;;;;;;;;;;20.25;63.02;98427.91;2077179;28;20024;-65
2023/10/24 02:38:09;;;;;;;;;;;;;;;20.25;63.00;98423.38;2077054;28;19935;-66
2023/10/24 02:39:11;;;;;;;;;;;;;;;20.26;62.67;98425.03;2078368;28;20046;-66
2023/10/24 02:40:14;;;;;;;;;;;;;;;20.27;63.05;98418.56;2079722;28;19959;-66
2023/10/24 02:41:15;;;;;;;;;;;;;;;20.26;62.79;98416.94;2076917;28;20403;-66
2023/10/24 02:42:16;;;;;;;;;;;;;;;20.26;62.84;98411.56;2078854;28;19925;-66
2023/10/24 02:43:17;;;;;;;;;;;;;;;20.27;63.06;98420.44;2077395;28;20291;-66
2023/10/24 02:44:19;;;;;;;;;;;;;;;20.28;62.75;98422.09;2070868;28;19939;-67
2023/10/24 02:45:21;;;;;;;;;;;;;;;20.27;62.94;98423.97;2074569;28;20887;-66
2023/10/24 02:46:21;;;;;;;;;;;;;;;20.26;62.94;98408.84;2078629;28;19921;-65
2023/10/24 02:47:23;;;;;;;;;;;;;;;20.27;62.90;98415.06;2080948;28;19928;-66
2023/10/24 02:48:24;;;;;;;;;;;;;;;20.27;62.93;98415.88;2082885;28;19921;-66
2023/10/24 02:49:25;;;;;;;;;;;;;;;20.27;62.93;98406.97;2077970;28;20490;-66
2023/10/24 02:50:26;;;;;;;;;;;;;;;20.26;62.80;98406.16;2081217;28;19932;-66
2023/10/24 02:51:28;;;;;;;;;;;;;;;20.27;63.11;98410.50;2076235;28;20020;-66
2023/10/24 02:52:29;;;;;;;;;;;;;;;20.26;63.01;98403.47;2079892;28;19970;-66
2023/10/24 02:53:31;;;;;;;;;;;;;;;20.27;62.86;98407.81;2070159;28;19975;-65
2023/10/24 02:54:33;;;;;;;;;;;;;;;20.27;63.17;98402.41;2078551;28;19921;-66
2023/10/24 02:55:34;;;;;;;;;;;;;;;20.27;63.11;98410.50;2078169;28;19920;-66
2023/10/24 02:56:35;;;;;;;;;;;;;;;20.25;62.90;98404.53;2077165;28;19921;-66
2023/10/24 02:57:37;;;;;;;;;;;;;;;20.27;62.78;98409.69;2075912;28;20415;-66
2023/10/24 02:58:37;;;;;;;;;;;;;;;20.27;62.88;98405.09;2079035;28;19928;-66
2023/10/24 02:59:38;;;;;;;;;;;;;;;20.26;63.26;98406.16;2078688;28;19925;-66
2023/10/24 03:00:40;;;;;;;;;;;;;;;20.25;63.18;98401.84;2080782;28;19983;-66
2023/10/24 03:01:41;;;;;;;;;;;;;;;20.26;63.11;98398.09;2070870;28;20008;-65
2023/10/24 03:02:42;;;;;;;;;;;;;;;20.27;63.19;98401.59;2078819;28;19931;-67
2023/10/24 03:03:43;;;;;;;;;;;;;;;20.26;62.99;98395.41;2079774;28;19929;-67
2023/10/24 03:04:45;;;;;;;;;;;;;;;20.25;63.13;98399.16;2077627;28;20039;-66
2023/10/24 03:05:45;;;;;;;;;;;;;;;20.26;62.83;98400.78;2076726;28;20295;-66
2023/10/24 03:06:47;;;;;;;;;;;;;;;20.26;62.87;98383.81;2077260;28;20020;-65
2023/10/24 03:07:47;;;;;;;;;;;;;;;20.27;63.13;98390.81;2079478;28;19973;-67
2023/10/24 03:08:50;;;;;;;;;;;;;;;20.26;62.82;98387.31;2079432;28;19921;-66
2023/10/24 03:09:51;;;;;;;;;;;;;;;20.27;63.09;98388.13;2080290;28;20398;-65
2023/10/24 03:10:53;;;;;;;;;;;;;;;20.27;63.02;98386.25;2078147;28;19971;-66
2023/10/24 03:11:54;;;;;;;;;;;;;;;20.26;63.16;98381.94;2064262;28;19921;-66
2023/10/24 03:12:56;;;;;;;;;;;;;;;20.27;63.18;98382.75;2077710;28;19935;-67
2023/10/24 03:13:56;;;;;;;;;;;;;;;20.27;63.13;98383.56;2078348;28;19995;-66
2023/10/24 03:14:58;;;;;;;;;;;;;;;20.26;63.19;98379.22;2073871;28;19983;-67
2023/10/24 03:16:01;;;;;;;;;;;;;;;20.27;63.09;98383.56;2079148;28;19929;-65
2023/10/24 03:17:02;;;;;;;;;;;;;;;20.27;63.30;98377.38;2078594;28;20383;-66
2023/10/24 03:18:03;;;;;;;;;;;;;;;20.27;62.89;98388.13;2064529;28;19960;-66
2023/10/24 03:19:05;;;;;;;;;;;;;;;20.27;63.10;98378.19;2080357;28;20354;-66
2023/10/24 03:20:06;;;;;;;;;;;;;;;20.26;62.91;98373.84;2078645;28;20383;-67
2023/10/24 03:21:07;;;;;;;;;;;;;;;20.29;63.19;98377.97;2077057;28;19929;-67
2023/10/24 03:22:08;;;;;;;;;;;;;;;20.28;63.17;98368.22;2078212;28;19943;-66
2023/10/24 03:23:09;;;;;;;;;;;;;;;20.27;63.12;98355.81;2076135;28;20387;-65
2023/10/24 03:24:10;;;;;;;;;;;;;;;20.27;62.92;98362.03;2079110;28;19924;-66
2023/10/24 03:25:12;;;;;;;;;;;;;;;20.28;63.03;98346.69;2078459;28;19921;-65
2023/10/24 03:26:14;;;;;;;;;;;;;;;20.28;62.80;98338.59;2077769;28;20534;-65
2023/10/24 03:27:17;;;;;;;;;;;;;;;20.25;63.03;98334.50;2077220;28;20319;-66
2023/10/24 03:28:18;;;;;;;;;;;;;;;20.24;63.15;98332.84;2078374;28;19935;-65
2023/10/24 03:29:19;;;;;;;;;;;;;;;20.26;62.82;98332.63;2075222;28;19920;-67
2023/10/24 03:30:21;;;;;;;;;;;;;;;20.25;63.20;98328.28;2076585;28;19978;-66
2023/10/24 03:31:21;;;;;;;;;;;;;;;20.26;63.00;98333.44;2079704;28;19925;-66
2023/10/24 03:32:22;;;;;;;;;;;;;;;20.26;63.30;98338.84;2079169;28;20640;-66
2023/10/24 03:33:23;;;;;;;;;;;;;;;20.26;63.03;98338.03;2081185;28;19933;-66
2023/10/24 03:34:25;;;;;;;;;;;;;;;20.26;63.21;98344.22;2077590;28;19928;-66
2023/10/24 03:35:26;;;;;;;;;;;;;;;20.26;62.96;98333.44;2076853;28;20458;-66
2023/10/24 03:36:27;;;;;;;;;;;;;;;20.27;62.96;98328.88;2079931;28;19921;-65
2023/10/24 03:37:29;;;;;;;;;;;;;;;20.26;62.92;98328.06;2062431;28;19928;-66
2023/10/24 03:38:30;;;;;;;;;;;;;;;20.27;63.17;98321.63;2077116;28;19929;-66
2023/10/24 03:39:32;;;;;;;;;;;;;;;20.26;63.21;98311.09;2077307;28;19925;-67
2023/10/24 03:40:37;;;;;;;;;;;;;;;20.26;62.94;98317.28;2079442;28;20615;-66
2023/10/24 03:41:39;;;;;;;;;;;;;;;20.27;63.19;98318.94;2075613;28;19956;-66
2023/10/24 03:42:39;;;;;;;;;;;;;;;20.27;63.14;98327.00;2076432;28;19931;-66
2023/10/24 03:43:47;;;;;;;;;;;;;;;20.28;63.07;98325.13;2074724;28;20012;-65
2023/10/24 03:44:48;;;;;;;;;;;;;;;20.28;63.17;98331.38;2079118;28;19950;-66
2023/10/24 03:45:49;;;;;;;;;;;;;;;20.29;63.01;98327.63;2077902;28;19929;-66
2023/10/24 03:46:50;;;;;;;;;;;;;;;20.27;62.88;98316.25;2077713;28;19928;-66
2023/10/24 03:47:52;;;;;;;;;;;;;;;20.27;63.13;98324.31;2078204;28;19921;-65
2023/10/24 03:48:55;;;;;;;;;;;;;;;20.28;62.92;98319.75;2076909;28;19936;-65
2023/10/24 03:49:56;;;;;;;;;;;;;;;20.29;63.07;98319.53;2078566;28;20007;-66
2023/10/24 03:50:59;;;;;;;;;;;;;;;20.28;62.87;98309.81;2076931;28;19921;-66
2023/10/24 03:51:59;;;;;;;;;;;;;;;20.28;62.91;98304.44;2077578;28;19946;-67
2023/10/24 03:53:01;;;;;;;;;;;;;;;20.28;62.87;98307.13;2076980;28;20468;-67
2023/10/24 03:54:03;;;;;;;;;;;;;;;20.27;62.84;98305.47;2083003;28;19929;-65
2023/10/24 03:55:04;;;;;;;;;;;;;;;20.26;63.03;98290.38;2063913;28;27635;-67
2023/10/24 03:56:06;;;;;;;;;;;;;;;20.26;63.09;98284.97;2078236;28;19950;-65
2023/10/24 03:57:08;;;;;;;;;;;;;;;20.26;63.13;98284.97;2077518;28;19929;-65
2023/10/24 03:58:09;;;;;;;;;;;;;;;20.26;63.02;98278.78;2079503;28;20407;-65
2023/10/24 03:59:10;;;;;;;;;;;;;;;20.26;63.03;98274.19;2080601;28;19947;-66
2023/10/24 04:00:12;;;;;;;;;;;;;;;20.27;62.99;98281.22;2074730;28;19924;-65
2023/10/24 04:01:14;;;;;;;;;;;;;;;20.26;62.80;98276.91;2075969;28;19937;-65
2023/10/24 04:02:14;;;;;;;;;;;;;;;20.27;63.20;98281.22;2079263;28;20402;-66
2023/10/24 04:03:16;;;;;;;;;;;;;;;20.28;62.77;98287.44;2079341;28;20007;-66
2023/10/24 04:04:16;;;;;;;;;;;;;;;20.26;63.10;98282.28;2080142;28;19925;-66
2023/10/24 04:05:18;;;;;;;;;;;;;;;20.28;62.85;98284.75;2076644;28;20384;-66
2023/10/24 04:06:19;;;;;;;;;;;;;;;20.28;62.86;98287.44;2077285;28;19932;-66
2023/10/24 04:07:21;;;;;;;;;;;;;;;20.27;63.08;98281.22;2077260;28;20024;-66
2023/10/24 04:08:22;;;;;;;;;;;;;;;20.29;62.77;98291.78;2078371;28;19929;-66
2023/10/24 04:09:23;;;;;;;;;;;;;;;20.27;62.76;98292.00;2073099;28;19925;-66
2023/10/24 04:10:24;;;;;;;;;;;;;;;20.28;62.85;98288.28;2078126;28;20003;-65
2023/10/24 04:11:28;;;;;;;;;;;;;;;20.27;62.89;98283.91;2079628;28;20004;-67
2023/10/24 04:12:29;;;;;;;;;;;;;;;20.28;62.80;98282.03;2076279;28;20879;-66
2023/10/24 04:13:30;;;;;;;;;;;;;;;20.28;62.90;98292.81;2068642;28;19929;-66
2023/10/24 04:14:31;;;;;;;;;;;;;;;20.28;62.89;98299.06;2075772;28;19935;-66
2023/10/24 04:15:32;;;;;;;;;;;;;;;20.29;62.96;98300.69;2075324;28;20012;-66
2023/10/24 04:16:33;;;;;;;;;;;;;;;20.29;62.72;98308.78;2078781;28;19932;-66
2023/10/24 04:17:35;;;;;;;;;;;;;;;20.29;63.06;98313.34;2078244;28;19925;-66
2023/10/24 04:18:35;;;;;;;;;;;;;;;20.28;62.82;98314.38;2069494;28;19929;-66
2023/10/24 04:19:37;;;;;;;;;;;;;;;20.29;62.72;98313.34;2077980;28;20027;-65
2023/10/24 04:20:40;;;;;;;;;;;;;;;20.28;63.03;98311.66;2075595;28;19925;-65
2023/10/24 04:21:40;;;;;;;;;;;;;;;20.28;62.83;98315.22;2076073;28;19928;-66
2023/10/24 04:22:42;;;;;;;;;;;;;;;20.29;62.97;98310.63;2078480;28;20290;-66
2023/10/24 04:23:43;;;;;;;;;;;;;;;20.27;63.19;98304.66;2081013;28;20319;-66
2023/10/24 04:24:43;;;;;;;;;;;;;;;20.26;63.00;98301.13;2078395;28;20035;-66
2023/10/24 04:25:45;;;;;;;;;;;;;;;20.28;62.74;98299.06;2078947;28;19925;-65
2023/10/24 04:26:47;;;;;;;;;;;;;;;20.27;63.02;98308.16;2077990;28;19921;-66
2023/10/24 04:27:49;;;;;;;;;;;;;;;20.29;62.79;98307.94;2077365;28;20631;-66
2023/10/24 04:28:49;;;;;;;;;;;;;;;20.25;63.12;98296.81;2077835;28;19936;-66
2023/10/24 04:29:50;;;;;;;;;;;;;;;20.27;63.18;98286.63;2078536;28;19928;-66
2023/10/24 04:30:52;;;;;;;;;;;;;;;20.29;62.89;98281.84;2078070;28;20537;-66
2023/10/24 04:31:52;;;;;;;;;;;;;;;20.27;63.07;98280.41;2072561;28;19921;-65
2023/10/24 04:32:53;;;;;;;;;;;;;;;20.27;63.09;98285.78;2078727;28;19943;-66
2023/10/24 04:33:55;;;;;;;;;;;;;;;20.27;62.85;98286.63;2079239;28;19984;-67
2023/10/24 04:34:55;;;;;;;;;;;;;;;20.28;62.72;98282.03;2078750;28;19928;-64
2023/10/24 04:35:57;;;;;;;;;;;;;;;20.27;63.10;98281.22;2079403;28;19975;-65
2023/10/24 04:36:58;;;;;;;;;;;;;;;20.28;62.88;98265.88;2065744;28;20504;-66
2023/10/24 04:37:59;;;;;;;;;;;;;;;20.28;62.74;98263.19;2076138;28;19927;-65
2023/10/24 04:39:00;;;;;;;;;;;;;;;20.27;63.09;98262.38;2080050;28;19969;-66
2023/10/24 04:40:01;;;;;;;;;;;;;;;20.27;62.81;98265.06;2077507;28;20016;-65
2023/10/24 04:41:02;;;;;;;;;;;;;;;20.28;62.97;98249.72;2079689;28;19921;-63
2023/10/24 04:42:05;;;;;;;;;;;;;;;20.29;62.65;98256.78;2075641;28;19925;-66
2023/10/24 04:43:05;;;;;;;;;;;;;;;20.28;62.88;98255.97;2077004;28;19977;-66
2023/10/24 04:44:07;;;;;;;;;;;;;;;20.27;63.00;98254.28;2077887;28;19932;-66
2023/10/24 04:45:08;;;;;;;;;;;;;;;20.27;62.77;98256.16;2076888;28;19921;-65
2023/10/24 04:46:10;;;;;;;;;;;;;;;20.26;62.97;98247.28;2074296;28;19925;-66
2023/10/24 04:47:10;;;;;;;;;;;;;;;20.25;62.95;98245.63;2074245;28;19921;-66
2023/10/24 04:48:12;;;;;;;;;;;;;;;20.27;62.91;98256.16;2075333;28;20023;-66
2023/10/24 04:49:13;;;;;;;;;;;;;;;20.28;63.06;98249.72;2079433;28;19936;-66
2023/10/24 04:50:15;;;;;;;;;;;;;;;20.28;62.75;98245.19;2076226;28;19925;-66
2023/10/24 04:51:15;;;;;;;;;;;;;;;20.28;62.70;98261.34;2076920;28;19929;-66
2023/10/24 04:52:17;;;;;;;;;;;;;;;20.29;62.71;98251.41;2080119;28;19925;-67
2023/10/24 04:53:17;;;;;;;;;;;;;;;20.27;62.87;98256.16;2078473;28;20405;-65
2023/10/24 04:54:19;;;;;;;;;;;;;;;20.26;63.05;98268.81;2078180;28;19952;-65
2023/10/24 04:55:20;;;;;;;;;;;;;;;20.27;63.02;98262.38;2066544;28;19996;-65
2023/10/24 04:56:22;;;;;;;;;;;;;;;20.28;62.99;98261.34;2074393;28;19930;-66
2023/10/24 04:57:24;;;;;;;;;;;;;;;20.29;62.74;98256.78;2075592;28;19928;-66
2023/10/24 04:58:25;;;;;;;;;;;;;;;20.28;62.94;98252.41;2079652;28;19971;-66
2023/10/24 04:59:26;;;;;;;;;;;;;;;20.29;62.77;98248.69;2080003;28;19935;-66
2023/10/24 05:00:27;;;;;;;;;;;;;;;20.28;62.89;98244.34;2075848;28;19975;-66
2023/10/24 05:01:28;;;;;;;;;;;;;;;20.28;63.06;98247.88;2077699;28;19928;-66
2023/10/24 05:02:29;;;;;;;;;;;;;;;20.27;62.89;98253.47;2075985;28;19936;-64
2023/10/24 05:03:30;;;;;;;;;;;;;;;20.28;63.00;98252.41;2076771;28;19929;-66
2023/10/24 05:04:31;;;;;;;;;;;;;;;20.28;62.81;98247.88;2069928;28;19925;-66
2023/10/24 05:05:32;;;;;;;;;;;;;;;20.27;63.11;98238.13;2075681;28;20386;-65
2023/10/24 05:06:33;;;;;;;;;;;;;;;20.26;62.92;98239.19;2079414;28;20251;-66
2023/10/24 05:07:35;;;;;;;;;;;;;;;20.27;62.99;98237.31;2077985;28;19930;-65
2023/10/24 05:08:35;;;;;;;;;;;;;;;20.27;63.13;98232.75;2078857;28;20292;-67
2023/10/24 05:09:37;;;;;;;;;;;;;;;20.28;63.05;98230.88;2079481;28;19963;-66
2023/10/24 05:10:37;;;;;;;;;;;;;;;20.28;63.13;98222.78;2082903;28;19920;-66
2023/10/24 05:11:40;;;;;;;;;;;;;;;20.27;63.07;98221.97;2077070;28;19924;-67
2023/10/24 05:12:42;;;;;;;;;;;;;;;20.29;62.63;98216.38;2079167;28;20084;-66
2023/10/24 05:13:43;;;;;;;;;;;;;;;20.29;62.97;98213.69;2077912;28;19958;-66
2023/10/24 05:14:44;;;;;;;;;;;;;;;20.29;63.08;98208.31;2078933;28;19921;-66
2023/10/24 05:15:46;;;;;;;;;;;;;;;20.27;62.75;98211.22;2081080;28;19925;-66
2023/10/24 05:16:46;;;;;;;;;;;;;;;20.28;63.00;98214.72;2063435;28;19956;-66
2023/10/24 05:17:48;;;;;;;;;;;;;;;20.28;62.68;98210.19;2075229;28;19921;-66
2023/10/24 05:18:49;;;;;;;;;;;;;;;20.29;63.08;98219.88;2080963;28;19928;-66
2023/10/24 05:19:50;;;;;;;;;;;;;;;20.29;62.75;98222.59;2069029;28;19931;-66